createdAt,value
2018-12-11T00:01:06.264Z,99046.29
2018-12-11T00:03:17.088Z,99040.72
2018-12-11T00:05:27.959Z,99047.94
2018-12-11T00:07:38.789Z,99045.35
2018-12-11T00:09:49.628Z,99046.54
2018-12-11T00:12:00.454Z,99047.42
2018-12-11T00:14:11.324Z,99043.03
2018-12-11T00:16:22.158Z,99045.59
2018-12-11T00:18:32.981Z,99046.83
2018-12-11T00:20:43.850Z,99046.44
2018-12-11T00:22:54.678Z,99040.89
2018-12-11T00:25:05.526Z,99043.47
2018-12-11T00:27:16.386Z,99041.34
2018-12-11T00:29:27.228Z,99043.58
2018-12-11T00:31:38.079Z,99046.53
2018-12-11T00:33:48.912Z,99044.30
2018-12-11T00:36:00.572Z,99040.84
2018-12-11T00:38:11.389Z,99041.75
2018-12-11T00:40:22.207Z,99050.00
2018-12-11T00:42:33.075Z,99047.92
2018-12-11T00:44:43.901Z,99047.42
2018-12-11T00:46:54.748Z,99049.00
2018-12-11T00:49:05.552Z,99045.53
2018-12-11T00:51:16.413Z,99051.13
2018-12-11T00:53:27.217Z,99051.23
2018-12-11T00:55:38.048Z,99046.14
2018-12-11T00:57:48.893Z,99044.87
2018-12-11T00:59:59.741Z,99046.64
2018-12-11T01:02:10.605Z,99042.69
2018-12-11T01:04:21.434Z,99044.31
2018-12-11T01:06:32.300Z,99043.09
2018-12-11T01:08:43.120Z,99044.37
2018-12-11T01:10:53.945Z,99046.94
2018-12-11T01:13:04.818Z,99045.20
2018-12-11T01:15:15.653Z,99042.69
2018-12-11T01:17:26.500Z,99048.66
2018-12-11T01:19:37.309Z,99046.64
2018-12-11T01:21:48.264Z,99046.25
2018-12-11T01:23:59.105Z,99050.10
2018-12-11T01:26:09.959Z,99049.55
2018-12-11T01:28:20.813Z,99051.29
2018-12-11T01:30:31.627Z,99049.59
2018-12-11T01:32:42.461Z,99048.81
2018-12-11T01:34:53.321Z,99048.81
2018-12-11T01:37:04.169Z,99051.38
2018-12-11T01:39:15.003Z,99050.45
2018-12-11T01:41:25.860Z,99052.17
2018-12-11T01:43:36.703Z,99054.34
2018-12-11T01:45:47.533Z,99048.81
2018-12-11T01:47:58.408Z,99052.17
2018-12-11T01:50:09.356Z,99056.80
2018-12-11T01:52:20.173Z,99048.71
2018-12-11T01:54:31.135Z,99053.86
2018-12-11T01:56:41.944Z,99051.72
2018-12-11T01:58:52.798Z,99047.02
2018-12-11T02:01:03.613Z,99052.22
2018-12-11T02:03:14.466Z,99053.86
2018-12-11T02:05:25.293Z,99057.20
2018-12-11T02:07:36.173Z,99057.16
2018-12-11T02:09:47.033Z,99046.03
2018-12-11T02:11:57.841Z,99054.54
2018-12-11T02:14:08.681Z,99048.61
2018-12-11T02:16:19.542Z,99046.53
2018-12-11T02:18:30.366Z,99044.86
2018-12-11T02:20:41.218Z,99043.63
2018-12-11T02:22:52.032Z,99045.25
2018-12-11T02:25:04.112Z,99036.36
2018-12-11T02:27:14.941Z,99043.73
2018-12-11T02:29:25.757Z,99045.94
2018-12-11T02:31:36.610Z,99047.23
2018-12-11T02:33:47.556Z,99047.08
2018-12-11T02:35:58.401Z,99048.27
2018-12-11T02:38:09.262Z,99042.18
2018-12-11T02:40:20.109Z,99043.97
2018-12-11T02:42:31.013Z,99047.42
2018-12-11T02:44:41.883Z,99052.51
2018-12-11T02:46:52.816Z,99051.23
2018-12-11T02:49:03.782Z,99046.88
2018-12-11T02:51:14.622Z,99046.03
2018-12-11T02:53:25.568Z,99051.12
2018-12-11T02:55:36.418Z,99050.62
2018-12-11T02:57:47.241Z,99049.74
2018-12-11T02:59:58.087Z,99050.58
2018-12-11T03:02:09.026Z,99057.83
2018-12-11T03:04:19.871Z,99050.17
2018-12-11T03:06:30.727Z,99050.62
2018-12-11T03:08:41.537Z,99044.69
2018-12-11T03:10:52.389Z,99047.67
2018-12-11T03:13:03.313Z,99047.66
2018-12-11T03:15:14.153Z,99048.46
2018-12-11T03:17:24.990Z,99049.34
2018-12-11T03:19:35.834Z,99046.82
2018-12-11T03:21:46.677Z,99051.46
2018-12-11T03:23:57.506Z,99053.14
2018-12-11T03:26:08.337Z,99049.69
2018-12-11T03:28:19.164Z,99049.25
2018-12-11T03:30:30.026Z,99054.83
2018-12-11T03:32:41.037Z,99055.26
2018-12-11T03:34:51.879Z,99053.98
2018-12-11T03:37:02.729Z,99050.13
2018-12-11T03:39:13.544Z,99048.69
2018-12-11T03:41:24.388Z,99049.58
2018-12-11T03:43:35.232Z,99056.17
2018-12-11T03:45:46.068Z,99058.73
2018-12-11T03:47:56.922Z,99046.66
2018-12-11T03:50:07.867Z,99051.41
2018-12-11T03:52:21.643Z,99045.98
2018-12-11T03:54:31.677Z,99044.26
2018-12-11T03:56:42.513Z,99045.89
2018-12-11T03:58:53.350Z,99048.61
2018-12-11T04:01:04.296Z,99045.59
2018-12-11T04:03:15.297Z,99042.59
2018-12-11T04:05:26.992Z,99047.16
2018-12-11T04:07:37.818Z,99050.73
2018-12-11T04:09:48.760Z,99047.33
2018-12-11T04:11:59.722Z,99040.84
2018-12-11T04:14:10.629Z,99045.98
2018-12-11T04:16:21.459Z,99051.97
2018-12-11T04:18:32.281Z,99043.02
2018-12-11T04:20:43.130Z,99042.48
2018-12-11T04:22:53.941Z,99045.53
2018-12-11T04:25:05.435Z,99052.76
2018-12-11T04:27:16.257Z,99056.66
2018-12-11T04:29:27.105Z,99055.77
2018-12-11T04:31:37.909Z,99054.88
2018-12-11T04:33:48.742Z,99060.85
2018-12-11T04:35:59.677Z,99056.16
2018-12-11T04:38:10.501Z,99063.92
2018-12-11T04:40:21.353Z,99067.32
2018-12-11T04:42:32.189Z,99066.45
2018-12-11T04:44:43.010Z,99064.77
2018-12-11T04:46:53.842Z,99064.31
2018-12-11T04:49:04.685Z,99070.34
2018-12-11T04:51:15.544Z,99068.17
2018-12-11T04:53:26.380Z,99063.81
2018-12-11T04:55:37.236Z,99063.37
2018-12-11T04:57:48.060Z,99054.33
2018-12-11T04:59:58.908Z,99057.40
2018-12-11T05:02:09.742Z,99054.43
2018-12-11T05:04:20.560Z,99058.73
2018-12-11T05:06:31.409Z,99058.44
2018-12-11T05:08:42.230Z,99057.65
2018-12-11T05:10:53.084Z,99054.25
2018-12-11T05:13:03.918Z,99053.45
2018-12-11T05:15:14.751Z,99055.53
2018-12-11T05:17:25.613Z,99054.23
2018-12-11T05:19:36.453Z,99048.11
2018-12-11T05:21:47.309Z,99051.28
2018-12-11T05:23:58.193Z,99047.83
2018-12-11T05:26:09.005Z,99054.36
2018-12-11T05:28:19.872Z,99053.61
2018-12-11T05:30:30.704Z,99042.89
2018-12-11T05:32:41.523Z,99047.29
2018-12-11T05:34:52.352Z,99040.52
2018-12-11T05:37:03.519Z,99050.10
2018-12-11T05:39:14.382Z,99048.81
2018-12-11T05:41:25.241Z,99050.10
2018-12-11T05:43:36.125Z,99048.11
2018-12-11T05:45:46.957Z,99041.80
2018-12-11T05:47:57.787Z,99048.64
2018-12-11T05:50:08.604Z,99059.02
2018-12-11T05:52:19.466Z,99055.20
2018-12-11T05:54:30.428Z,99058.97
2018-12-11T05:56:41.349Z,99064.19
2018-12-11T05:58:52.208Z,99071.45
2018-12-11T06:01:03.883Z,99069.55
2018-12-11T06:03:14.729Z,99070.78
2018-12-11T06:05:25.541Z,99069.45
2018-12-11T06:07:36.374Z,99076.66
2018-12-11T06:09:47.207Z,99072.77
2018-12-11T06:11:58.046Z,99074.09
2018-12-11T06:14:08.890Z,99075.38
2018-12-11T06:16:20.177Z,99077.50
2018-12-11T06:18:31.017Z,99075.28
2018-12-11T06:20:41.857Z,99080.77
2018-12-11T06:22:52.688Z,99081.56
2018-12-11T06:25:03.781Z,99085.86
2018-12-11T06:27:14.912Z,99082.41
2018-12-11T06:29:25.769Z,99085.38
2018-12-11T06:31:36.596Z,99085.22
2018-12-11T06:33:47.413Z,99087.40
2018-12-11T06:35:58.347Z,99078.41
2018-12-11T06:38:09.300Z,99083.55
2018-12-11T06:40:20.136Z,99085.76
2018-12-11T06:42:31.087Z,99081.56
2018-12-11T06:44:41.920Z,99083.25
2018-12-11T06:46:52.785Z,99083.59
2018-12-11T06:49:03.635Z,99087.04
2018-12-11T06:51:14.491Z,99090.91
2018-12-11T06:53:25.326Z,99087.55
2018-12-11T06:55:36.184Z,99089.22
2018-12-11T06:57:47.028Z,99093.46
2018-12-11T06:59:57.857Z,99099.01
2018-12-11T07:02:08.701Z,99101.58
2018-12-11T07:04:19.512Z,99102.80
2018-12-11T07:06:30.355Z,99104.05
2018-12-11T07:08:41.168Z,99100.59
2018-12-11T07:10:52.009Z,99110.28
2018-12-11T07:13:02.858Z,99106.47
2018-12-11T07:15:13.675Z,99102.13
2018-12-11T07:17:24.513Z,99108.64
2018-12-11T07:19:35.339Z,99112.14
2018-12-11T07:21:46.181Z,99106.97
2018-12-11T07:23:57.004Z,99103.55
2018-12-11T07:26:07.842Z,99114.27
2018-12-11T07:28:18.682Z,99113.82
2018-12-11T07:30:29.538Z,99118.88
2018-12-11T07:32:40.384Z,99114.17
2018-12-11T07:34:51.213Z,99112.94
2018-12-11T07:37:02.052Z,99112.53
2018-12-11T07:39:12.898Z,99116.45
2018-12-11T07:41:23.737Z,99117.24
2018-12-11T07:43:34.704Z,99120.78
2018-12-11T07:45:45.548Z,99117.72
2018-12-11T07:47:56.377Z,99112.10
2018-12-11T07:50:07.264Z,99118.56
2018-12-11T07:52:18.117Z,99108.74
2018-12-11T07:54:28.959Z,99110.42
2018-12-11T07:56:39.830Z,99115.16
2018-12-11T07:58:50.704Z,99115.56
2018-12-11T08:01:01.552Z,99112.09
2018-12-11T08:03:12.412Z,99120.24
2018-12-11T08:05:23.232Z,99118.08
2018-12-11T08:07:34.071Z,99117.58
2018-12-11T08:09:44.926Z,99112.84
2018-12-11T08:11:55.746Z,99111.56
2018-12-11T08:14:06.616Z,99113.23
2018-12-11T08:16:18.109Z,99109.87
2018-12-11T08:18:28.945Z,99105.08
2018-12-11T08:20:39.781Z,99108.09
2018-12-11T08:22:50.616Z,99109.23
2018-12-11T08:25:01.453Z,99112.64
2018-12-11T08:27:12.286Z,99116.98
2018-12-11T08:29:23.124Z,99109.23
2018-12-11T08:31:34.117Z,99118.92
2018-12-11T08:33:44.961Z,99122.78
2018-12-11T08:35:55.848Z,99119.01
2018-12-11T08:38:06.696Z,99116.84
2018-12-11T08:40:17.537Z,99127.52
2018-12-11T08:42:28.377Z,99116.00
2018-12-11T08:44:39.213Z,99117.34
2018-12-11T08:46:50.073Z,99111.80
2018-12-11T08:49:00.905Z,99118.92
2018-12-11T08:51:11.750Z,99119.36
2018-12-11T08:53:22.620Z,99122.22
2018-12-11T08:55:33.478Z,99120.89
2018-12-11T08:57:44.319Z,99128.51
2018-12-11T08:59:55.166Z,99117.72
2018-12-11T09:02:06.000Z,99119.59
2018-12-11T09:04:16.835Z,99123.91
2018-12-11T09:06:27.761Z,99120.89
2018-12-11T09:08:38.638Z,99123.46
2018-12-11T09:10:49.476Z,99131.91
2018-12-11T09:13:00.316Z,99132.31
2018-12-11T09:15:11.149Z,99132.36
2018-12-11T09:17:21.975Z,99131.91
2018-12-11T09:19:32.777Z,99137.20
2018-12-11T09:21:43.660Z,99146.16
2018-12-11T09:23:54.548Z,99154.90
2018-12-11T09:26:05.374Z,99150.26
2018-12-11T09:28:16.246Z,99134.30
2018-12-11T09:30:27.087Z,99145.10
2018-12-11T09:32:37.957Z,99147.23
2018-12-11T09:34:48.788Z,99140.84
2018-12-11T09:36:59.668Z,99138.68
2018-12-11T09:39:10.502Z,99135.56
2018-12-11T09:41:21.358Z,99128.66
2018-12-11T09:43:32.216Z,99123.86
2018-12-11T09:45:43.068Z,99129.35
2018-12-11T09:47:53.900Z,99128.90
2018-12-11T09:50:06.106Z,99131.42
2018-12-11T09:52:16.927Z,99141.66
2018-12-11T09:54:27.752Z,99132.27
2018-12-11T09:56:38.566Z,99129.98
2018-12-11T09:58:49.412Z,99130.29
2018-12-11T10:01:00.283Z,99133.23
2018-12-11T10:03:11.150Z,99130.80
2018-12-11T10:05:22.095Z,99128.69
2018-12-11T10:07:32.941Z,99126.55
2018-12-11T10:09:43.776Z,99118.30
2018-12-11T10:11:54.624Z,99122.43
2018-12-11T10:14:05.608Z,99114.50
2018-12-11T10:16:16.468Z,99115.45
2018-12-11T10:18:27.311Z,99114.99
2018-12-11T10:20:38.209Z,99116.62
2018-12-11T10:22:49.240Z,99117.17
2018-12-11T10:25:00.301Z,99120.81
2018-12-11T10:27:11.152Z,99120.70
2018-12-11T10:29:22.153Z,99114.83
2018-12-11T10:31:32.968Z,99114.59
2018-12-11T10:33:44.576Z,99106.53
2018-12-11T10:35:55.422Z,99112.52
2018-12-11T10:38:06.456Z,99107.74
2018-12-11T10:40:17.323Z,99101.30
2018-12-11T10:42:29.196Z,99105.17
2018-12-11T10:44:40.022Z,99102.15
2018-12-11T10:46:50.886Z,99091.88
2018-12-11T10:49:01.741Z,99098.30
2018-12-11T10:51:12.569Z,99096.56
2018-12-11T10:53:23.395Z,99096.56
2018-12-11T10:55:34.241Z,99095.29
2018-12-11T10:57:45.068Z,99091.86
2018-12-11T10:59:55.896Z,99090.58
2018-12-11T11:02:25.591Z,99084.97
2018-12-11T11:04:36.455Z,99093.14
2018-12-11T11:06:47.331Z,99088.44
2018-12-11T11:08:58.167Z,99098.80
2018-12-11T11:11:09.140Z,99098.37
2018-12-11T11:13:19.960Z,99093.67
2018-12-11T11:15:30.831Z,99094.43
2018-12-11T11:17:41.795Z,99088.79
2018-12-11T11:19:52.633Z,99091.36
2018-12-11T11:22:03.484Z,99092.83
2018-12-11T11:24:14.304Z,99089.41
2018-12-11T11:26:25.183Z,99098.53
2018-12-11T11:28:36.148Z,99094.69
2018-12-11T11:30:46.965Z,99093.34
2018-12-11T11:32:57.857Z,99091.72
2018-12-11T11:35:08.693Z,99095.64
2018-12-11T11:37:19.534Z,99085.79
2018-12-11T11:39:30.361Z,99087.41
2018-12-11T11:41:41.275Z,99088.83
2018-12-11T11:43:52.113Z,99089.59
2018-12-11T11:46:03.055Z,99084.06
2018-12-11T11:48:13.919Z,99084.89
2018-12-11T11:50:25.273Z,99077.56
2018-12-11T11:52:36.123Z,99071.59
2018-12-11T11:54:46.977Z,99071.95
2018-12-11T11:56:57.816Z,99070.55
2018-12-11T11:59:08.719Z,99071.84
2018-12-11T12:01:19.576Z,99066.98
2018-12-11T12:03:30.432Z,99069.86
2018-12-11T12:05:41.268Z,99065.61
2018-12-11T12:07:52.124Z,99069.33
2018-12-11T12:10:05.784Z,99069.47
2018-12-11T12:12:16.637Z,99068.58
2018-12-11T12:14:27.475Z,99061.61
2018-12-11T12:16:38.321Z,99060.72
2018-12-11T12:18:49.208Z,99064.84
2018-12-11T12:21:00.045Z,99056.79
2018-12-11T12:23:10.899Z,99051.14
2018-12-11T12:25:21.777Z,99053.25
2018-12-11T12:27:32.725Z,99051.83
2018-12-11T12:29:43.577Z,99050.09
2018-12-11T12:31:54.396Z,99050.48
2018-12-11T12:34:05.360Z,99048.44
2018-12-11T12:36:16.228Z,99050.44
2018-12-11T12:38:27.064Z,99041.08
2018-12-11T12:40:37.911Z,99043.23
2018-12-11T12:42:48.751Z,99045.34
2018-12-11T12:44:59.698Z,99038.95
2018-12-11T12:47:10.535Z,99041.68
2018-12-11T12:49:21.372Z,99039.63
2018-12-11T12:51:32.241Z,99039.10
2018-12-11T12:53:43.946Z,99043.93
2018-12-11T12:55:54.794Z,99037.49
2018-12-11T12:58:05.634Z,99038.24
2018-12-11T13:00:16.608Z,99042.97
2018-12-11T13:02:27.453Z,99040.49
2018-12-11T13:04:38.311Z,99041.85
2018-12-11T13:06:49.325Z,99048.31
2018-12-11T13:09:00.494Z,99052.69
2018-12-11T13:11:11.359Z,99048.95
2018-12-11T13:13:22.205Z,99050.82
2018-12-11T13:15:33.052Z,99048.31
2018-12-11T13:17:43.937Z,99050.94
2018-12-11T13:19:54.899Z,99052.60
2018-12-11T13:22:05.727Z,99057.75
2018-12-11T13:24:16.571Z,99054.41
2018-12-11T13:26:27.505Z,99058.16
2018-12-11T13:28:38.472Z,99058.61
2018-12-11T13:30:49.337Z,99055.57
2018-12-11T13:33:00.197Z,99056.47
2018-12-11T13:35:11.208Z,99052.22
2018-12-11T13:37:22.120Z,99054.81
2018-12-11T13:39:32.952Z,99059.95
2018-12-11T13:41:43.917Z,99055.64
2018-12-11T13:43:54.981Z,99050.44
2018-12-11T13:46:05.837Z,99058.94
2018-12-11T13:48:23.255Z,99058.16
2018-12-11T13:50:29.671Z,99056.87
2018-12-11T13:52:40.554Z,99063.30
2018-12-11T13:54:51.369Z,99055.13
2018-12-11T13:57:02.357Z,99058.59
2018-12-11T13:59:13.193Z,99055.31
2018-12-11T14:01:24.072Z,99051.13
2018-12-11T14:03:34.912Z,99048.05
2018-12-11T14:05:45.759Z,99049.72
2018-12-11T14:07:56.611Z,99043.75
2018-12-11T14:10:07.566Z,99043.41
2018-12-11T14:12:18.426Z,99044.12
2018-12-11T14:14:29.278Z,99042.51
2018-12-11T14:16:40.149Z,99038.59
2018-12-11T14:18:51.073Z,99042.05
2018-12-11T14:21:01.901Z,99045.27
2018-12-11T14:23:12.749Z,99041.95
2018-12-11T14:25:23.639Z,99051.78
2018-12-11T14:27:34.489Z,99046.95
2018-12-11T14:29:45.353Z,99046.17
2018-12-11T14:31:56.245Z,99047.41
2018-12-11T14:34:07.116Z,99043.33
2018-12-11T14:36:17.956Z,99041.55
2018-12-11T14:38:28.866Z,99049.25
2018-12-11T14:40:39.716Z,99044.12
2018-12-11T14:42:50.724Z,99047.59
2018-12-11T14:45:01.700Z,99047.97
2018-12-11T14:47:12.669Z,99047.47
2018-12-11T14:49:23.561Z,99048.87
2018-12-11T14:51:34.510Z,99048.89
2018-12-11T14:53:45.509Z,99048.23
2018-12-11T14:55:56.384Z,99047.00
2018-12-11T14:58:07.277Z,99046.88
2018-12-11T15:00:18.100Z,99049.47
2018-12-11T15:02:29.602Z,99046.88
2018-12-11T15:04:40.519Z,99050.76
2018-12-11T15:06:51.464Z,99050.36
2018-12-11T15:09:11.216Z,99050.86
2018-12-11T15:11:22.064Z,99054.72
2018-12-11T15:13:32.907Z,99053.52
2018-12-11T15:15:43.770Z,99053.52
2018-12-11T15:17:54.635Z,99056.59
2018-12-11T15:20:05.744Z,99057.11
2018-12-11T15:22:16.593Z,99062.09
2018-12-11T15:24:27.452Z,99072.11
2018-12-11T15:26:38.301Z,99071.28
2018-12-11T15:28:49.194Z,99065.08
2018-12-11T15:31:05.924Z,99068.55
2018-12-11T15:33:16.860Z,99067.80
2018-12-11T15:35:27.722Z,99066.18
2018-12-11T15:37:38.649Z,99062.23
2018-12-11T15:39:49.474Z,99056.86
2018-12-11T15:42:00.377Z,99052.61
2018-12-11T15:44:11.201Z,99058.19
2018-12-11T15:46:22.278Z,99049.26
2018-12-11T15:48:33.154Z,99053.89
2018-12-11T15:50:44.016Z,99057.81
2018-12-11T15:52:54.898Z,99064.28
2018-12-11T15:55:05.727Z,99065.02
2018-12-11T15:57:16.612Z,99063.73
2018-12-11T15:59:27.464Z,99062.55
2018-12-11T16:01:38.332Z,99067.59
2018-12-11T16:03:49.297Z,99067.70
2018-12-11T16:06:00.185Z,99071.04
2018-12-11T16:08:11.035Z,99072.39
2018-12-11T16:10:21.882Z,99075.47
2018-12-11T16:12:32.736Z,99075.47
2018-12-11T16:14:43.580Z,99077.64
2018-12-11T16:16:54.435Z,99072.88
2018-12-11T16:19:05.274Z,99069.54
2018-12-11T16:21:16.100Z,99077.39
2018-12-11T16:23:26.948Z,99070.58
2018-12-11T16:25:37.806Z,99072.25
2018-12-11T16:27:48.678Z,99078.23
2018-12-11T16:29:59.644Z,99076.11
2018-12-11T16:32:10.505Z,99077.39
2018-12-11T16:34:21.384Z,99073.53
2018-12-11T16:36:32.229Z,99074.03
2018-12-11T16:38:43.093Z,99075.92
2018-12-11T16:40:53.945Z,99084.44
2018-12-11T16:43:04.849Z,99082.25
2018-12-11T16:45:15.738Z,99083.04
2018-12-11T16:47:26.601Z,99089.81
2018-12-11T16:49:37.470Z,99089.75
2018-12-11T16:51:48.298Z,99091.05
2018-12-11T16:53:59.269Z,99092.72
2018-12-11T16:56:10.128Z,99092.22
2018-12-11T16:58:20.977Z,99094.73
2018-12-11T17:00:31.864Z,99093.02
2018-12-11T17:02:42.725Z,99095.09
2018-12-11T17:04:53.616Z,99094.63
2018-12-11T17:07:04.470Z,99098.10
2018-12-11T17:09:15.314Z,99098.16
2018-12-11T17:11:26.214Z,99093.50
2018-12-11T17:13:37.082Z,99099.04
2018-12-11T17:15:48.325Z,99102.90
2018-12-11T17:17:59.300Z,99101.27
2018-12-11T17:20:10.182Z,99099.59
2018-12-11T17:22:21.187Z,99102.59
2018-12-11T17:24:32.063Z,99102.61
2018-12-11T17:26:42.979Z,99103.01
2018-12-11T17:28:53.839Z,99106.37
2018-12-11T17:31:04.852Z,99108.94
2018-12-11T17:33:15.706Z,99110.22
2018-12-11T17:35:26.574Z,99114.47
2018-12-11T17:37:37.436Z,99113.17
2018-12-11T17:39:48.336Z,99118.67
2018-12-11T17:41:59.241Z,99116.98
2018-12-11T17:44:10.110Z,99122.63
2018-12-11T17:46:20.984Z,99110.22
2018-12-11T17:48:31.911Z,99111.51
2018-12-11T17:50:42.759Z,99117.08
2018-12-11T17:52:53.638Z,99115.31
2018-12-11T17:55:04.487Z,99115.75
2018-12-11T17:57:15.339Z,99114.02
2018-12-11T17:59:26.171Z,99111.94
2018-12-11T18:01:37.576Z,99113.73
2018-12-11T18:03:48.512Z,99115.45
2018-12-11T18:05:59.419Z,99110.36
2018-12-11T18:08:10.435Z,99103.95
2018-12-11T18:10:21.315Z,99109.92
2018-12-11T18:12:32.416Z,99111.11
2018-12-11T18:14:43.335Z,99114.95
2018-12-11T18:16:54.185Z,99117.92
2018-12-11T18:19:05.105Z,99120.00
2018-12-11T18:21:15.988Z,99112.73
2018-12-11T18:23:26.855Z,99120.39
2018-12-11T18:25:37.769Z,99121.72
2018-12-11T18:27:48.613Z,99118.81
2018-12-11T18:29:59.517Z,99120.55
2018-12-11T18:32:10.866Z,99124.30
2018-12-11T18:34:21.985Z,99122.66
2018-12-11T18:36:32.875Z,99123.46
2018-12-11T18:38:43.744Z,99126.52
2018-12-11T18:40:54.611Z,99131.66
2018-12-11T18:43:05.525Z,99130.00
2018-12-11T18:45:16.473Z,99133.05
2018-12-11T18:47:27.319Z,99134.39
2018-12-11T18:49:38.185Z,99132.75
2018-12-11T18:51:49.062Z,99131.42
2018-12-11T18:53:59.954Z,99126.67
2018-12-11T18:56:10.853Z,99130.58
2018-12-11T18:58:21.744Z,99128.41
2018-12-11T19:00:32.613Z,99123.66
2018-12-11T19:02:43.504Z,99128.06
2018-12-11T19:04:54.374Z,99125.09
2018-12-11T19:07:05.277Z,99128.99
2018-12-11T19:09:16.145Z,99125.19
2018-12-11T19:11:27.310Z,99125.63
2018-12-11T19:13:38.129Z,99121.05
2018-12-11T19:15:49.478Z,99128.80
2018-12-11T19:18:00.389Z,99131.02
2018-12-11T19:20:11.368Z,99123.80
2018-12-11T19:22:22.266Z,99123.06
2018-12-11T19:24:33.956Z,99123.45
2018-12-11T19:26:44.882Z,99122.31
2018-12-11T19:28:55.776Z,99127.48
2018-12-11T19:31:06.599Z,99125.80
2018-12-11T19:33:17.646Z,99129.30
2018-12-11T19:35:33.065Z,99125.45
2018-12-11T19:37:41.432Z,99123.33
2018-12-11T19:39:52.298Z,99126.42
2018-12-11T19:42:03.233Z,99126.73
2018-12-11T19:44:14.179Z,99121.64
2018-12-11T19:46:25.090Z,99121.69
2018-12-11T19:48:36.016Z,99121.73
2018-12-11T19:50:46.993Z,99121.34
2018-12-11T19:52:57.888Z,99117.92
2018-12-11T19:55:08.751Z,99120.00
2018-12-11T19:57:19.621Z,99114.16
2018-12-11T19:59:31.066Z,99118.54
2018-12-11T20:01:41.947Z,99117.66
2018-12-11T20:03:52.884Z,99118.63
2018-12-11T20:06:03.857Z,99115.30
2018-12-11T20:08:14.805Z,99118.70
2018-12-11T20:10:31.652Z,99120.07
2018-12-11T20:12:43.135Z,99115.05
2018-12-11T20:14:54.048Z,99118.50
2018-12-11T20:17:04.996Z,99109.20
2018-12-11T20:19:15.920Z,99116.02
2018-12-11T20:21:26.797Z,99109.64
2018-12-11T20:23:37.709Z,99101.98
2018-12-11T20:25:48.621Z,99108.00
2018-12-11T20:27:59.533Z,99107.63
2018-12-11T20:30:10.420Z,99103.86
2018-12-11T20:32:21.347Z,99105.22
2018-12-11T20:34:32.216Z,99105.26
2018-12-11T20:36:43.992Z,99105.37
2018-12-11T20:38:55.014Z,99098.59
2018-12-11T20:41:05.909Z,99096.87
2018-12-11T20:43:17.157Z,99091.33
2018-12-11T20:45:28.207Z,99091.34
2018-12-11T20:47:39.128Z,99089.24
2018-12-11T20:49:50.042Z,99085.80
2018-12-11T20:52:01.074Z,99085.33
2018-12-11T20:54:12.013Z,99093.02
2018-12-11T20:56:22.907Z,99083.68
2018-12-11T20:58:33.816Z,99095.19
2018-12-11T21:00:44.803Z,99094.74
2018-12-11T21:02:55.735Z,99095.14
2018-12-11T21:05:06.744Z,99091.73
2018-12-11T21:07:17.682Z,99097.78
2018-12-11T21:09:28.619Z,99102.95
2018-12-11T21:11:43.507Z,99094.41
2018-12-11T21:13:54.441Z,99105.55
2018-12-11T21:16:10.855Z,99101.30
2018-12-11T21:18:18.453Z,99100.48
2018-12-11T21:20:31.622Z,99107.30
2018-12-11T21:22:42.625Z,99103.86
2018-12-11T21:24:53.519Z,99105.91
2018-12-11T21:27:04.851Z,99105.00
2018-12-11T21:29:19.251Z,99110.97
2018-12-11T21:31:30.147Z,99108.84
2018-12-11T21:33:41.056Z,99109.76
2018-12-11T21:35:51.937Z,99100.86
2018-12-11T21:38:02.820Z,99110.30
2018-12-11T21:40:13.698Z,99106.02
2018-12-11T21:42:24.609Z,99111.21
2018-12-11T21:44:35.583Z,99113.44
2018-12-11T21:46:46.592Z,99112.19
2018-12-11T21:48:57.458Z,99112.19
2018-12-11T21:51:08.341Z,99110.19
2018-12-11T21:53:19.232Z,99104.66
2018-12-11T21:55:36.444Z,99112.78
2018-12-11T21:57:47.526Z,99107.66
2018-12-11T21:59:59.588Z,99112.41
2018-12-11T22:02:10.657Z,99108.13
2018-12-11T22:04:21.787Z,99103.88
2018-12-11T22:06:32.748Z,99106.88
2018-12-11T22:08:43.661Z,99105.19
2018-12-11T22:10:54.533Z,99104.38
2018-12-11T22:13:05.422Z,99104.87
2018-12-11T22:15:16.337Z,99105.70
2018-12-11T22:17:27.215Z,99102.25
2018-12-11T22:19:38.162Z,99103.09
2018-12-11T22:21:49.025Z,99109.09
2018-12-11T22:23:59.895Z,99111.67
2018-12-11T22:26:10.757Z,99108.24
2018-12-11T22:28:21.637Z,99103.55
2018-12-11T22:30:32.504Z,99109.96
2018-12-11T22:32:43.405Z,99113.77
2018-12-11T22:34:54.296Z,99115.46
2018-12-11T22:37:05.160Z,99106.94
2018-12-11T22:39:16.110Z,99116.30
2018-12-11T22:41:26.990Z,99112.03
2018-12-11T22:43:37.845Z,99116.69
2018-12-11T22:45:48.741Z,99108.94
2018-12-11T22:47:59.619Z,99110.13
2018-12-11T22:50:10.607Z,99108.34
2018-12-11T22:52:21.691Z,99103.22
2018-12-11T22:54:32.655Z,99103.55
2018-12-11T22:56:49.241Z,99112.48
2018-12-11T22:59:00.270Z,99106.89
2018-12-11T23:01:11.364Z,99114.08
2018-12-11T23:03:22.337Z,99112.69
2018-12-11T23:05:33.205Z,99113.87
2018-12-11T23:07:44.064Z,99119.33
2018-12-11T23:09:54.925Z,99118.84
2018-12-11T23:12:05.823Z,99124.71
2018-12-11T23:14:16.692Z,99125.59
2018-12-11T23:16:27.665Z,99127.23
2018-12-11T23:18:38.505Z,99130.20
2018-12-11T23:20:49.377Z,99127.28
2018-12-11T23:23:00.229Z,99127.67
2018-12-11T23:25:11.073Z,99130.24
2018-12-11T23:27:22.136Z,99124.23
2018-12-11T23:29:33.000Z,99125.52
2018-12-11T23:31:43.878Z,99119.50
2018-12-11T23:33:54.724Z,99122.36
2018-12-11T23:36:05.589Z,99125.80
2018-12-11T23:38:16.473Z,99118.10
2018-12-11T23:40:34.363Z,99121.95
2018-12-11T23:42:45.266Z,99119.80
2018-12-11T23:44:56.147Z,99112.17
2018-12-11T23:47:07.038Z,99109.53
2018-12-11T23:49:17.988Z,99114.34
2018-12-11T23:51:28.849Z,99114.41
2018-12-11T23:53:39.681Z,99119.54
2018-12-11T23:55:57.549Z,99112.69
2018-12-11T23:58:08.430Z,99106.59
